Aviation Digital Data Service (ADDS)

Output produced by METARs form (1346 UTC 16 August 2022)
found at http://aviationweather.gov/metar/data/
 
METAR text: EGLF 161320Z VRB03KT 9999 FEW027 SCT049 21/16 Q1008
Conditions at: EGLF (FARNBOROUGH , GB) observed 1320 UTC 16 August 2022
Temperature: 21.0°C (70°F)
Dewpoint: 16.0°C (61°F) [RH = 73%]
Pressure (altimeter): 29.76 inches Hg (1008.0 mb)
Winds: variable direction winds at 3 MPH (3 knots; 1.5 m/s)
Visibility: 6 or more miles (10+ km)
Ceiling: at least 12,000 feet AGL
Clouds: few clouds at 2700 feet AGL
scattered clouds at 4900 feet AGL
Weather: no significant weather observed at this time

METAR text: EGLF 161250Z VRB03KT 9999 FEW032 SCT048 20/16 Q1008
Conditions at: EGLF (FARNBOROUGH , GB) observed 1250 UTC 16 August 2022
Temperature: 20.0°C (68°F)
Dewpoint: 16.0°C (61°F) [RH = 78%]
Pressure (altimeter): 29.76 inches Hg (1008.0 mb)
Winds: variable direction winds at 3 MPH (3 knots; 1.5 m/s)
Visibility: 6 or more miles (10+ km)
Ceiling: at least 12,000 feet AGL
Clouds: few clouds at 3200 feet AGL
scattered clouds at 4800 feet AGL
Weather: no significant weather observed at this time

Forecast for: EGLF (FARNBOROUGH , GB)
Text: TAF EGLF 161059Z 1612/1621 26003KT CAVOK
Forecast period: 1200 to 2100 UTC 16 August 2022
Forecast type: FROM: standard forecast or significant change
Winds: from the W (260 degrees) at 3 MPH (3 knots; 1.5 m/s)
Visibility: 6 or more miles (10+ km)
Ceiling: unknown
Clouds: missing
Weather: NSW  (no significant weather)
Text: TEMPO 1612/1620 7000 SHRA BKN040CB
Forecast period: 1200 to 2000 UTC 16 August 2022
Forecast type: TEMPORARY: The following changes expected for less than half the time period
Visibility: 4 miles (7 km)
Ceiling: 4000 feet AGL
Clouds: broken clouds at 4000 feet AGL
Weather: SHRA  (rain showers)
Text: PROB30
Forecast period: 1200 to 1700 UTC 16 August 2022
Forecast type: TEMPORARY: The following changes expected for less than half the time period
Visibility: 1.86 miles (2.99 km)
Ceiling: unknown
Clouds: missing
Weather: +SHRA +TSGR  (heavy rain showers, unknown weather)